Pagina principale
METAR-TAF:

METAR-TAF

Aeroporti :

Bolzano, Italia

latitudine: 46-28N, longitudine: 011-20E, altezza: 262 m

Osservazione

Il bollettino è stato emesso 13 minuti fa, alle 20:50 UTC
Vento 2 kt da direzioni variabili
Temperature 20°C
Umidità 83%
Pressione 1017 hPa
Visibilità 10 km o più
Poco nuvoloso ad un'altezza di 12000 ft

METAR: LIPB 162050Z VRB02KT 9999 FEW120 20/17 Q1017

Ora: 23:03 (21:03 UTC)

Previsione

Il bollettino è stato emesso 4 ore e 3 minuti fa, alle 17:00 UTC
Previsione valida dal 16 alle 18 UTC al 17 alle 18 UTC
Vento 5 kt da direzioni variabili
Visibilità 10 km o più
nessuna nube inferiore a 1500 m e nessun cumulonembo

TAF: LIPB 161700Z 1618/1718 VRB05KT CAVOK

Osservazioni e previsioni meteorologiche di più di 4000 aeroporti (messaggi METAR e TAF).

Le stazioni disponibili sono rappresentate dai dischi gialli e rossi sulla carta.

Puntare il mouse per vedere il nome della stazione.

Clicca sopra per visualizzare le osservazioni e previsioni meteorologiche.

Per cambiare la mappa : fare clic sui pulsanti verdi con una croce nera per ingrandire, il pulsante verde con un trattino per diminuire, o sulla freccia verde per le mappe adiacenti.


METAR-TAF: